Main page
METAR-TAF:

METAR-TAF

Airports :

Base de Almagro

Almagro, Spain

latitude: 38-57-11N, longitude: 3-44-29W, elevation: 629 m

Current weather observation

The report was made 28 minutes ago, at 21:00 UTC
Wind 4 kt from the East
Temperature -1°C
Humidity 80%
Pressure 1025 hPa
Visibility 10 km or more
no clouds below 1500 m and no cumulonimbus

METAR: LEAO 212100Z 10004KT CAVOK M01/M04 Q1025

Time: 22:28 (21:28 UTC)

Forecast

The report was made 1 hour and 28 minutes ago, at 20:00 UTC
Forecast valid from 21 at 21 UTC to 22 at 21 UTC
Wind 6 kt from the Northeast
Visibility 10 km or more
no clouds below 1500 m and no cumulonimbus
Probability 40% :
Temporary
from 22 at 02 UTC to 22 at 14 UTC
Visibility: 2000 m
Broken clouds at a height of 1200 ft
mist
Probability 30% :
Temporary
from 22 at 03 UTC to 22 at 13 UTC
Visibility: 0200 m
at a height of 100 ft
freezing fog

TAF: LEAO 212000Z 2121/2221 04006KT CAVOK TX11/2215Z TNM04/2208Z PROB40 TEMPO 2202/2214 2000 BR BKN012 PROB30 TEMPO 2203/2213 0200 FZFG VV001

Weather observations and forecasts of more than 4000 airports (METAR and TAF reports).

The available stations are represented by yellow and red dots on the map.

Hover mouse over dot to see the name of the station.

Then click to see weather observations and forecasts.

To change the map : click on the green buttons with a black cross to zoom in, on the green button with a dash to zoom out, or on the green arrows for adjacent maps.


METAR-TAF: